sensor_id;sensor_type;location;lat;lon;timestamp;P1;durP1;ratioP1;P2;durP2;ratioP2
9214;SDS011;4642;51.364;6.788;2023-08-31T00:01:31;5.83;;;2.37;;
9214;SDS011;4642;51.364;6.788;2023-08-31T00:03:58;4.70;;;2.07;;
9214;SDS011;4642;51.364;6.788;2023-08-31T00:06:24;10.20;;;2.20;;
9214;SDS011;4642;51.364;6.788;2023-08-31T00:08:50;5.47;;;2.20;;
9214;SDS011;4642;51.364;6.788;2023-08-31T00:11:16;9.10;;;2.20;;
9214;SDS011;4642;51.364;6.788;2023-08-31T00:13:42;8.20;;;2.53;;
9214;SDS011;4642;51.364;6.788;2023-08-31T00:16:07;6.97;;;2.60;;
9214;SDS011;4642;51.364;6.788;2023-08-31T00:18:34;5.47;;;2.70;;
9214;SDS011;4642;51.364;6.788;2023-08-31T00:21:01;5.50;;;2.63;;
9214;SDS011;4642;51.364;6.788;2023-08-31T00:23:28;8.43;;;2.60;;
9214;SDS011;4642;51.364;6.788;2023-08-31T00:25:53;9.83;;;2.70;;
9214;SDS011;4642;51.364;6.788;2023-08-31T00:28:22;5.97;;;3.10;;
9214;SDS011;4642;51.364;6.788;2023-08-31T00:30:47;6.27;;;2.83;;
9214;SDS011;4642;51.364;6.788;2023-08-31T00:33:13;11.30;;;3.50;;
9214;SDS011;4642;51.364;6.788;2023-08-31T00:35:40;8.87;;;3.40;;
9214;SDS011;4642;51.364;6.788;2023-08-31T00:38:10;6.00;;;3.50;;
9214;SDS011;4642;51.364;6.788;2023-08-31T00:40:41;7.90;;;3.00;;
9214;SDS011;4642;51.364;6.788;2023-08-31T00:43:09;8.50;;;3.53;;
9214;SDS011;4642;51.364;6.788;2023-08-31T00:45:35;14.20;;;3.30;;
9214;SDS011;4642;51.364;6.788;2023-08-31T00:48:02;6.93;;;3.47;;
9214;SDS011;4642;51.364;6.788;2023-08-31T00:50:29;6.77;;;2.77;;
9214;SDS011;4642;51.364;6.788;2023-08-31T00:52:55;5.33;;;2.53;;
9214;SDS011;4642;51.364;6.788;2023-08-31T00:55:21;10.70;;;2.93;;
9214;SDS011;4642;51.364;6.788;2023-08-31T00:57:47;11.90;;;2.77;;
9214;SDS011;4642;51.364;6.788;2023-08-31T01:00:13;18.20;;;3.27;;
9214;SDS011;4642;51.364;6.788;2023-08-31T01:05:08;12.03;;;2.97;;
9214;SDS011;4642;51.364;6.788;2023-08-31T01:07:57;5.97;;;2.77;;
9214;SDS011;4642;51.364;6.788;2023-08-31T01:13:28;7.17;;;2.73;;
9214;SDS011;4642;51.364;6.788;2023-08-31T01:15:59;5.07;;;2.60;;
9214;SDS011;4642;51.364;6.788;2023-08-31T01:18:28;6.83;;;2.43;;
9214;SDS011;4642;51.364;6.788;2023-08-31T01:23:54;6.33;;;2.40;;
9214;SDS011;4642;51.364;6.788;2023-08-31T01:26:21;4.03;;;2.50;;
9214;SDS011;4642;51.364;6.788;2023-08-31T01:28:48;8.60;;;2.80;;
9214;SDS011;4642;51.364;6.788;2023-08-31T01:31:15;4.30;;;2.53;;
9214;SDS011;4642;51.364;6.788;2023-08-31T01:33:41;12.20;;;3.00;;
9214;SDS011;4642;51.364;6.788;2023-08-31T01:39:08;4.77;;;3.17;;
9214;SDS011;4642;51.364;6.788;2023-08-31T01:41:44;9.93;;;3.40;;
9214;SDS011;4642;51.364;6.788;2023-08-31T01:44:15;9.33;;;2.97;;
9214;SDS011;4642;51.364;6.788;2023-08-31T01:46:45;12.50;;;3.07;;
9214;SDS011;4642;51.364;6.788;2023-08-31T01:49:11;11.77;;;2.87;;
9214;SDS011;4642;51.364;6.788;2023-08-31T01:51:37;4.50;;;3.10;;
9214;SDS011;4642;51.364;6.788;2023-08-31T01:54:03;8.17;;;3.07;;
9214;SDS011;4642;51.364;6.788;2023-08-31T01:56:28;6.90;;;2.87;;
9214;SDS011;4642;51.364;6.788;2023-08-31T01:58:54;9.30;;;2.70;;
9214;SDS011;4642;51.364;6.788;2023-08-31T02:01:19;4.63;;;2.60;;
9214;SDS011;4642;51.364;6.788;2023-08-31T02:03:45;6.03;;;2.87;;
9214;SDS011;4642;51.364;6.788;2023-08-31T02:06:11;6.30;;;3.00;;
9214;SDS011;4642;51.364;6.788;2023-08-31T02:08:36;10.20;;;2.97;;
9214;SDS011;4642;51.364;6.788;2023-08-31T02:11:02;12.37;;;3.33;;
9214;SDS011;4642;51.364;6.788;2023-08-31T02:13:27;6.87;;;2.77;;
9214;SDS011;4642;51.364;6.788;2023-08-31T02:15:54;9.97;;;3.13;;
9214;SDS011;4642;51.364;6.788;2023-08-31T02:18:20;6.60;;;3.20;;
9214;SDS011;4642;51.364;6.788;2023-08-31T02:20:45;6.43;;;3.00;;
9214;SDS011;4642;51.364;6.788;2023-08-31T02:23:11;11.67;;;3.10;;
9214;SDS011;4642;51.364;6.788;2023-08-31T02:25:37;8.57;;;3.07;;
9214;SDS011;4642;51.364;6.788;2023-08-31T02:28:03;7.77;;;2.87;;
9214;SDS011;4642;51.364;6.788;2023-08-31T02:30:28;5.73;;;2.70;;
9214;SDS011;4642;51.364;6.788;2023-08-31T02:32:54;7.60;;;2.60;;
9214;SDS011;4642;51.364;6.788;2023-08-31T02:35:19;7.53;;;3.03;;
9214;SDS011;4642;51.364;6.788;2023-08-31T02:37:45;6.37;;;3.17;;
9214;SDS011;4642;51.364;6.788;2023-08-31T02:40:11;6.30;;;2.83;;
9214;SDS011;4642;51.364;6.788;2023-08-31T02:42:36;5.13;;;3.00;;
9214;SDS011;4642;51.364;6.788;2023-08-31T02:45:02;7.50;;;2.97;;
9214;SDS011;4642;51.364;6.788;2023-08-31T02:47:29;9.40;;;3.00;;
9214;SDS011;4642;51.364;6.788;2023-08-31T02:49:54;4.07;;;2.60;;
9214;SDS011;4642;51.364;6.788;2023-08-31T02:52:21;5.83;;;3.20;;
9214;SDS011;4642;51.364;6.788;2023-08-31T02:54:46;8.70;;;2.53;;
9214;SDS011;4642;51.364;6.788;2023-08-31T02:57:12;6.53;;;3.10;;
9214;SDS011;4642;51.364;6.788;2023-08-31T02:59:37;6.23;;;2.57;;
9214;SDS011;4642;51.364;6.788;2023-08-31T03:02:03;7.10;;;2.90;;
9214;SDS011;4642;51.364;6.788;2023-08-31T03:04:29;5.67;;;2.90;;
9214;SDS011;4642;51.364;6.788;2023-08-31T03:06:54;7.17;;;3.00;;
9214;SDS011;4642;51.364;6.788;2023-08-31T03:09:20;7.43;;;3.67;;
9214;SDS011;4642;51.364;6.788;2023-08-31T03:11:46;7.30;;;3.07;;
9214;SDS011;4642;51.364;6.788;2023-08-31T03:14:11;6.73;;;3.13;;
9214;SDS011;4642;51.364;6.788;2023-08-31T03:16:37;5.10;;;3.20;;
9214;SDS011;4642;51.364;6.788;2023-08-31T03:19:03;4.90;;;2.97;;
9214;SDS011;4642;51.364;6.788;2023-08-31T03:21:29;9.57;;;2.80;;
9214;SDS011;4642;51.364;6.788;2023-08-31T03:23:54;6.47;;;2.90;;
9214;SDS011;4642;51.364;6.788;2023-08-31T03:26:20;6.27;;;3.17;;
9214;SDS011;4642;51.364;6.788;2023-08-31T03:28:45;9.23;;;2.77;;
9214;SDS011;4642;51.364;6.788;2023-08-31T03:31:11;4.93;;;2.93;;
9214;SDS011;4642;51.364;6.788;2023-08-31T03:33:36;8.73;;;3.40;;
9214;SDS011;4642;51.364;6.788;2023-08-31T03:36:02;5.43;;;3.33;;
9214;SDS011;4642;51.364;6.788;2023-08-31T03:38:29;8.53;;;3.33;;
9214;SDS011;4642;51.364;6.788;2023-08-31T03:40:55;4.57;;;3.40;;
9214;SDS011;4642;51.364;6.788;2023-08-31T03:43:22;6.10;;;3.00;;
9214;SDS011;4642;51.364;6.788;2023-08-31T03:45:48;9.73;;;3.20;;
9214;SDS011;4642;51.364;6.788;2023-08-31T03:48:14;7.00;;;3.30;;
9214;SDS011;4642;51.364;6.788;2023-08-31T03:50:40;5.50;;;2.70;;
9214;SDS011;4642;51.364;6.788;2023-08-31T03:53:05;5.73;;;3.10;;
9214;SDS011;4642;51.364;6.788;2023-08-31T03:55:31;9.10;;;3.30;;
9214;SDS011;4642;51.364;6.788;2023-08-31T03:57:56;8.10;;;3.43;;
9214;SDS011;4642;51.364;6.788;2023-08-31T04:00:23;3.83;;;2.93;;
9214;SDS011;4642;51.364;6.788;2023-08-31T04:02:49;8.07;;;3.47;;
9214;SDS011;4642;51.364;6.788;2023-08-31T04:05:14;11.17;;;3.23;;
9214;SDS011;4642;51.364;6.788;2023-08-31T04:07:40;7.40;;;3.30;;
9214;SDS011;4642;51.364;6.788;2023-08-31T04:10:06;6.03;;;2.90;;
9214;SDS011;4642;51.364;6.788;2023-08-31T04:12:32;3.43;;;2.83;;
9214;SDS011;4642;51.364;6.788;2023-08-31T04:14:59;6.27;;;3.13;;
9214;SDS011;4642;51.364;6.788;2023-08-31T04:17:25;9.40;;;3.27;;
9214;SDS011;4642;51.364;6.788;2023-08-31T04:19:51;12.60;;;3.37;;
9214;SDS011;4642;51.364;6.788;2023-08-31T04:22:16;4.63;;;3.07;;
9214;SDS011;4642;51.364;6.788;2023-08-31T04:24:42;8.83;;;3.17;;
9214;SDS011;4642;51.364;6.788;2023-08-31T04:27:07;4.83;;;3.07;;
9214;SDS011;4642;51.364;6.788;2023-08-31T04:29:33;6.60;;;3.20;;
9214;SDS011;4642;51.364;6.788;2023-08-31T04:31:58;7.20;;;3.53;;
9214;SDS011;4642;51.364;6.788;2023-08-31T04:34:24;9.37;;;3.27;;
9214;SDS011;4642;51.364;6.788;2023-08-31T04:36:49;6.77;;;3.00;;
9214;SDS011;4642;51.364;6.788;2023-08-31T04:39:15;6.97;;;2.97;;
9214;SDS011;4642;51.364;6.788;2023-08-31T04:41:40;3.67;;;3.00;;
9214;SDS011;4642;51.364;6.788;2023-08-31T04:44:06;6.77;;;3.10;;
9214;SDS011;4642;51.364;6.788;2023-08-31T04:46:31;5.37;;;3.10;;
9214;SDS011;4642;51.364;6.788;2023-08-31T04:48:58;8.37;;;3.80;;
9214;SDS011;4642;51.364;6.788;2023-08-31T04:51:28;3.67;;;2.77;;
9214;SDS011;4642;51.364;6.788;2023-08-31T04:53:57;3.60;;;3.07;;
9214;SDS011;4642;51.364;6.788;2023-08-31T04:56:23;9.80;;;2.97;;
9214;SDS011;4642;51.364;6.788;2023-08-31T04:58:49;6.07;;;3.00;;
9214;SDS011;4642;51.364;6.788;2023-08-31T05:01:14;11.67;;;3.73;;
9214;SDS011;4642;51.364;6.788;2023-08-31T05:03:41;4.37;;;2.80;;
9214;SDS011;4642;51.364;6.788;2023-08-31T05:06:06;7.57;;;3.60;;
9214;SDS011;4642;51.364;6.788;2023-08-31T05:08:32;12.70;;;3.40;;
9214;SDS011;4642;51.364;6.788;2023-08-31T05:10:58;10.10;;;4.20;;
9214;SDS011;4642;51.364;6.788;2023-08-31T05:13:24;13.57;;;3.77;;
9214;SDS011;4642;51.364;6.788;2023-08-31T05:15:50;7.23;;;4.13;;
9214;SDS011;4642;51.364;6.788;2023-08-31T05:18:15;12.30;;;4.50;;
9214;SDS011;4642;51.364;6.788;2023-08-31T05:20:44;8.20;;;4.27;;
9214;SDS011;4642;51.364;6.788;2023-08-31T05:23:10;12.70;;;4.20;;
9214;SDS011;4642;51.364;6.788;2023-08-31T05:25:36;5.83;;;3.60;;
9214;SDS011;4642;51.364;6.788;2023-08-31T05:28:07;5.03;;;4.33;;
9214;SDS011;4642;51.364;6.788;2023-08-31T05:30:33;5.20;;;4.07;;
9214;SDS011;4642;51.364;6.788;2023-08-31T05:32:59;6.23;;;3.93;;
9214;SDS011;4642;51.364;6.788;2023-08-31T05:35:25;5.77;;;3.80;;
9214;SDS011;4642;51.364;6.788;2023-08-31T05:37:51;5.00;;;4.20;;
9214;SDS011;4642;51.364;6.788;2023-08-31T05:40:16;7.80;;;3.63;;
9214;SDS011;4642;51.364;6.788;2023-08-31T05:42:43;4.97;;;3.90;;
9214;SDS011;4642;51.364;6.788;2023-08-31T05:45:08;7.10;;;3.73;;
9214;SDS011;4642;51.364;6.788;2023-08-31T05:47:34;6.00;;;3.60;;
9214;SDS011;4642;51.364;6.788;2023-08-31T05:50:01;5.53;;;3.70;;
9214;SDS011;4642;51.364;6.788;2023-08-31T05:52:28;8.33;;;4.57;;
9214;SDS011;4642;51.364;6.788;2023-08-31T05:54:53;8.87;;;5.13;;
9214;SDS011;4642;51.364;6.788;2023-08-31T05:57:19;10.00;;;5.47;;
9214;SDS011;4642;51.364;6.788;2023-08-31T05:59:45;7.70;;;5.77;;
9214;SDS011;4642;51.364;6.788;2023-08-31T06:02:12;8.20;;;6.40;;
9214;SDS011;4642;51.364;6.788;2023-08-31T06:04:37;9.93;;;6.60;;
9214;SDS011;4642;51.364;6.788;2023-08-31T06:07:03;18.63;;;7.17;;
9214;SDS011;4642;51.364;6.788;2023-08-31T06:09:28;12.10;;;7.23;;
9214;SDS011;4642;51.364;6.788;2023-08-31T06:11:54;10.23;;;7.70;;
9214;SDS011;4642;51.364;6.788;2023-08-31T06:14:19;14.13;;;9.00;;
9214;SDS011;4642;51.364;6.788;2023-08-31T06:16:45;9.07;;;7.50;;
9214;SDS011;4642;51.364;6.788;2023-08-31T06:19:11;11.27;;;7.53;;
9214;SDS011;4642;51.364;6.788;2023-08-31T06:21:40;10.57;;;8.60;;
9214;SDS011;4642;51.364;6.788;2023-08-31T06:24:06;9.70;;;7.47;;
9214;SDS011;4642;51.364;6.788;2023-08-31T06:26:34;12.30;;;7.43;;
9214;SDS011;4642;51.364;6.788;2023-08-31T06:29:00;16.97;;;8.10;;
9214;SDS011;4642;51.364;6.788;2023-08-31T06:31:26;11.87;;;8.33;;
9214;SDS011;4642;51.364;6.788;2023-08-31T06:33:51;13.77;;;8.50;;
9214;SDS011;4642;51.364;6.788;2023-08-31T06:36:17;12.50;;;8.20;;
9214;SDS011;4642;51.364;6.788;2023-08-31T06:38:42;10.27;;;7.60;;
9214;SDS011;4642;51.364;6.788;2023-08-31T06:41:09;14.47;;;8.43;;
9214;SDS011;4642;51.364;6.788;2023-08-31T06:43:35;11.87;;;7.73;;
9214;SDS011;4642;51.364;6.788;2023-08-31T06:46:00;12.27;;;8.97;;
9214;SDS011;4642;51.364;6.788;2023-08-31T06:48:26;16.27;;;8.30;;
9214;SDS011;4642;51.364;6.788;2023-08-31T06:50:51;12.83;;;8.07;;
9214;SDS011;4642;51.364;6.788;2023-08-31T06:53:17;17.70;;;9.23;;
9214;SDS011;4642;51.364;6.788;2023-08-31T06:55:42;14.83;;;8.50;;
9214;SDS011;4642;51.364;6.788;2023-08-31T06:58:09;13.50;;;8.03;;
9214;SDS011;4642;51.364;6.788;2023-08-31T07:00:34;14.00;;;8.30;;
9214;SDS011;4642;51.364;6.788;2023-08-31T07:03:00;10.63;;;7.67;;
9214;SDS011;4642;51.364;6.788;2023-08-31T07:05:26;14.80;;;8.03;;
9214;SDS011;4642;51.364;6.788;2023-08-31T07:07:52;11.53;;;7.77;;
9214;SDS011;4642;51.364;6.788;2023-08-31T07:10:19;12.80;;;7.53;;
9214;SDS011;4642;51.364;6.788;2023-08-31T07:12:45;8.63;;;7.43;;
9214;SDS011;4642;51.364;6.788;2023-08-31T07:15:10;11.10;;;7.37;;
9214;SDS011;4642;51.364;6.788;2023-08-31T07:17:36;16.23;;;8.27;;
9214;SDS011;4642;51.364;6.788;2023-08-31T07:20:01;11.43;;;7.50;;
9214;SDS011;4642;51.364;6.788;2023-08-31T07:22:30;10.40;;;7.73;;
9214;SDS011;4642;51.364;6.788;2023-08-31T07:24:57;13.03;;;7.43;;
9214;SDS011;4642;51.364;6.788;2023-08-31T07:27:23;8.90;;;6.90;;
9214;SDS011;4642;51.364;6.788;2023-08-31T07:29:48;9.53;;;7.07;;
9214;SDS011;4642;51.364;6.788;2023-08-31T07:32:14;8.93;;;6.60;;
9214;SDS011;4642;51.364;6.788;2023-08-31T07:34:40;8.13;;;5.53;;
9214;SDS011;4642;51.364;6.788;2023-08-31T07:37:05;9.33;;;6.03;;
9214;SDS011;4642;51.364;6.788;2023-08-31T07:39:31;9.83;;;5.83;;
9214;SDS011;4642;51.364;6.788;2023-08-31T07:41:57;10.87;;;5.80;;
9214;SDS011;4642;51.364;6.788;2023-08-31T07:44:24;9.60;;;5.30;;
9214;SDS011;4642;51.364;6.788;2023-08-31T07:46:50;7.23;;;5.03;;
9214;SDS011;4642;51.364;6.788;2023-08-31T07:49:15;8.43;;;5.00;;
9214;SDS011;4642;51.364;6.788;2023-08-31T07:51:41;7.20;;;4.33;;
9214;SDS011;4642;51.364;6.788;2023-08-31T07:54:06;8.07;;;4.97;;
9214;SDS011;4642;51.364;6.788;2023-08-31T07:56:32;7.97;;;4.77;;
9214;SDS011;4642;51.364;6.788;2023-08-31T07:58:58;9.20;;;4.40;;
9214;SDS011;4642;51.364;6.788;2023-08-31T08:01:23;6.67;;;4.70;;
9214;SDS011;4642;51.364;6.788;2023-08-31T08:03:49;7.17;;;4.30;;
9214;SDS011;4642;51.364;6.788;2023-08-31T08:06:14;9.67;;;4.00;;
9214;SDS011;4642;51.364;6.788;2023-08-31T08:08:40;6.47;;;3.73;;
9214;SDS011;4642;51.364;6.788;2023-08-31T08:11:06;6.60;;;3.87;;
9214;SDS011;4642;51.364;6.788;2023-08-31T08:13:31;10.03;;;4.23;;
9214;SDS011;4642;51.364;6.788;2023-08-31T08:15:57;6.47;;;3.73;;
9214;SDS011;4642;51.364;6.788;2023-08-31T08:18:23;6.30;;;3.60;;
9214;SDS011;4642;51.364;6.788;2023-08-31T08:20:51;5.47;;;3.43;;
9214;SDS011;4642;51.364;6.788;2023-08-31T08:23:17;6.57;;;3.47;;
9214;SDS011;4642;51.364;6.788;2023-08-31T08:25:43;4.57;;;3.57;;
9214;SDS011;4642;51.364;6.788;2023-08-31T08:28:08;13.80;;;3.70;;
9214;SDS011;4642;51.364;6.788;2023-08-31T08:30:34;8.43;;;4.00;;
9214;SDS011;4642;51.364;6.788;2023-08-31T08:32:59;11.10;;;4.00;;
9214;SDS011;4642;51.364;6.788;2023-08-31T08:35:25;5.50;;;3.33;;
9214;SDS011;4642;51.364;6.788;2023-08-31T08:37:51;7.33;;;3.93;;
9214;SDS011;4642;51.364;6.788;2023-08-31T08:40:17;4.13;;;3.33;;
9214;SDS011;4642;51.364;6.788;2023-08-31T08:42:43;7.20;;;3.47;;
9214;SDS011;4642;51.364;6.788;2023-08-31T08:45:15;4.77;;;3.60;;
9214;SDS011;4642;51.364;6.788;2023-08-31T08:47:42;7.00;;;3.17;;
9214;SDS011;4642;51.364;6.788;2023-08-31T08:50:09;6.60;;;3.40;;
9214;SDS011;4642;51.364;6.788;2023-08-31T08:52:36;7.43;;;3.23;;
9214;SDS011;4642;51.364;6.788;2023-08-31T08:55:03;7.80;;;3.10;;
9214;SDS011;4642;51.364;6.788;2023-08-31T08:57:30;7.23;;;3.63;;
9214;SDS011;4642;51.364;6.788;2023-08-31T08:59:57;5.57;;;3.20;;
9214;SDS011;4642;51.364;6.788;2023-08-31T09:02:23;6.40;;;3.30;;
9214;SDS011;4642;51.364;6.788;2023-08-31T09:04:49;4.00;;;2.70;;
9214;SDS011;4642;51.364;6.788;2023-08-31T09:07:17;5.87;;;3.10;;
9214;SDS011;4642;51.364;6.788;2023-08-31T09:09:50;7.33;;;3.03;;
9214;SDS011;4642;51.364;6.788;2023-08-31T09:12:17;5.17;;;2.47;;
9214;SDS011;4642;51.364;6.788;2023-08-31T09:14:43;7.10;;;3.00;;
9214;SDS011;4642;51.364;6.788;2023-08-31T09:17:25;6.00;;;2.80;;
9214;SDS011;4642;51.364;6.788;2023-08-31T09:19:58;7.17;;;2.93;;
9214;SDS011;4642;51.364;6.788;2023-08-31T09:22:25;6.77;;;2.27;;
9214;SDS011;4642;51.364;6.788;2023-08-31T09:24:51;6.83;;;2.93;;
9214;SDS011;4642;51.364;6.788;2023-08-31T09:27:17;5.63;;;2.20;;
9214;SDS011;4642;51.364;6.788;2023-08-31T09:29:45;5.00;;;2.07;;
9214;SDS011;4642;51.364;6.788;2023-08-31T09:32:17;7.77;;;2.40;;
9214;SDS011;4642;51.364;6.788;2023-08-31T09:34:43;5.53;;;2.20;;
9214;SDS011;4642;51.364;6.788;2023-08-31T09:37:09;8.13;;;2.27;;
9214;SDS011;4642;51.364;6.788;2023-08-31T09:39:35;5.63;;;2.37;;
9214;SDS011;4642;51.364;6.788;2023-08-31T09:42:02;4.83;;;1.57;;
9214;SDS011;4642;51.364;6.788;2023-08-31T09:44:28;7.60;;;2.13;;
9214;SDS011;4642;51.364;6.788;2023-08-31T09:46:54;6.20;;;2.07;;
9214;SDS011;4642;51.364;6.788;2023-08-31T09:49:20;6.47;;;1.97;;
9214;SDS011;4642;51.364;6.788;2023-08-31T09:51:49;7.00;;;1.70;;
9214;SDS011;4642;51.364;6.788;2023-08-31T09:54:16;7.17;;;2.10;;
9214;SDS011;4642;51.364;6.788;2023-08-31T09:56:44;7.87;;;1.97;;
9214;SDS011;4642;51.364;6.788;2023-08-31T09:59:11;4.13;;;1.67;;
9214;SDS011;4642;51.364;6.788;2023-08-31T10:01:39;6.10;;;1.80;;
9214;SDS011;4642;51.364;6.788;2023-08-31T10:04:05;7.63;;;2.07;;
9214;SDS011;4642;51.364;6.788;2023-08-31T10:06:33;4.00;;;2.03;;
9214;SDS011;4642;51.364;6.788;2023-08-31T10:09:06;5.57;;;2.07;;
9214;SDS011;4642;51.364;6.788;2023-08-31T10:11:34;4.33;;;1.90;;
9214;SDS011;4642;51.364;6.788;2023-08-31T10:14:02;7.50;;;2.10;;
9214;SDS011;4642;51.364;6.788;2023-08-31T10:16:28;5.10;;;1.83;;
9214;SDS011;4642;51.364;6.788;2023-08-31T10:18:55;4.63;;;2.17;;
9214;SDS011;4642;51.364;6.788;2023-08-31T10:21:21;4.90;;;2.23;;
9214;SDS011;4642;51.364;6.788;2023-08-31T10:23:48;6.37;;;2.40;;
9214;SDS011;4642;51.364;6.788;2023-08-31T10:26:24;7.20;;;2.20;;
9214;SDS011;4642;51.364;6.788;2023-08-31T10:28:55;6.90;;;2.17;;
9214;SDS011;4642;51.364;6.788;2023-08-31T10:31:22;7.40;;;2.47;;
9214;SDS011;4642;51.364;6.788;2023-08-31T10:33:58;5.03;;;2.10;;
9214;SDS011;4642;51.364;6.788;2023-08-31T10:39:16;3.40;;;1.90;;
9214;SDS011;4642;51.364;6.788;2023-08-31T10:41:55;6.20;;;2.23;;
9214;SDS011;4642;51.364;6.788;2023-08-31T10:44:22;2.80;;;1.90;;
9214;SDS011;4642;51.364;6.788;2023-08-31T10:46:49;5.70;;;2.00;;
9214;SDS011;4642;51.364;6.788;2023-08-31T10:49:16;7.80;;;1.80;;
9214;SDS011;4642;51.364;6.788;2023-08-31T10:51:55;3.73;;;1.97;;
9214;SDS011;4642;51.364;6.788;2023-08-31T10:54:23;3.83;;;2.13;;
9214;SDS011;4642;51.364;6.788;2023-08-31T10:59:49;7.20;;;2.10;;
9214;SDS011;4642;51.364;6.788;2023-08-31T11:02:28;5.70;;;2.10;;
9214;SDS011;4642;51.364;6.788;2023-08-31T11:07:41;4.93;;;1.57;;
9214;SDS011;4642;51.364;6.788;2023-08-31T11:12:45;2.07;;;1.30;;
9214;SDS011;4642;51.364;6.788;2023-08-31T11:15:12;5.63;;;2.27;;
9214;SDS011;4642;51.364;6.788;2023-08-31T11:17:39;3.80;;;1.90;;
9214;SDS011;4642;51.364;6.788;2023-08-31T11:20:06;5.00;;;1.60;;
9214;SDS011;4642;51.364;6.788;2023-08-31T11:22:34;5.90;;;1.93;;
9214;SDS011;4642;51.364;6.788;2023-08-31T11:25:03;2.53;;;1.57;;
9214;SDS011;4642;51.364;6.788;2023-08-31T11:27:28;5.40;;;1.60;;
9214;SDS011;4642;51.364;6.788;2023-08-31T11:29:54;3.93;;;1.80;;
9214;SDS011;4642;51.364;6.788;2023-08-31T11:32:22;5.20;;;1.77;;
9214;SDS011;4642;51.364;6.788;2023-08-31T11:34:49;4.73;;;1.57;;
9214;SDS011;4642;51.364;6.788;2023-08-31T11:37:15;4.47;;;1.67;;
9214;SDS011;4642;51.364;6.788;2023-08-31T11:39:50;4.17;;;1.70;;
9214;SDS011;4642;51.364;6.788;2023-08-31T11:42:18;2.43;;;1.23;;
9214;SDS011;4642;51.364;6.788;2023-08-31T11:44:46;7.70;;;2.00;;
9214;SDS011;4642;51.364;6.788;2023-08-31T11:47:13;4.40;;;1.90;;
9214;SDS011;4642;51.364;6.788;2023-08-31T11:49:40;5.27;;;1.57;;
9214;SDS011;4642;51.364;6.788;2023-08-31T11:52:08;3.17;;;1.50;;
9214;SDS011;4642;51.364;6.788;2023-08-31T11:54:36;6.10;;;2.13;;
9214;SDS011;4642;51.364;6.788;2023-08-31T11:57:03;4.17;;;1.93;;
9214;SDS011;4642;51.364;6.788;2023-08-31T11:59:33;4.70;;;1.80;;
9214;SDS011;4642;51.364;6.788;2023-08-31T12:02:00;4.33;;;1.63;;
9214;SDS011;4642;51.364;6.788;2023-08-31T12:04:25;2.60;;;1.60;;
9214;SDS011;4642;51.364;6.788;2023-08-31T12:06:51;6.13;;;1.80;;
9214;SDS011;4642;51.364;6.788;2023-08-31T12:09:20;2.40;;;1.70;;
9214;SDS011;4642;51.364;6.788;2023-08-31T12:11:52;4.37;;;1.67;;
9214;SDS011;4642;51.364;6.788;2023-08-31T12:14:22;6.17;;;1.50;;
9214;SDS011;4642;51.364;6.788;2023-08-31T12:16:49;3.87;;;1.57;;
9214;SDS011;4642;51.364;6.788;2023-08-31T12:19:16;5.03;;;1.93;;
9214;SDS011;4642;51.364;6.788;2023-08-31T12:21:43;2.83;;;1.50;;
9214;SDS011;4642;51.364;6.788;2023-08-31T12:24:10;3.60;;;1.63;;
9214;SDS011;4642;51.364;6.788;2023-08-31T12:26:36;4.83;;;1.60;;
9214;SDS011;4642;51.364;6.788;2023-08-31T12:29:02;3.07;;;1.67;;
9214;SDS011;4642;51.364;6.788;2023-08-31T12:31:31;5.47;;;1.93;;
9214;SDS011;4642;51.364;6.788;2023-08-31T12:34:00;3.37;;;1.67;;
9214;SDS011;4642;51.364;6.788;2023-08-31T12:36:29;5.30;;;2.00;;
9214;SDS011;4642;51.364;6.788;2023-08-31T12:38:55;5.90;;;1.87;;
9214;SDS011;4642;51.364;6.788;2023-08-31T12:41:20;5.07;;;1.60;;
9214;SDS011;4642;51.364;6.788;2023-08-31T12:43:46;5.23;;;1.60;;
9214;SDS011;4642;51.364;6.788;2023-08-31T12:46:11;4.43;;;1.70;;
9214;SDS011;4642;51.364;6.788;2023-08-31T12:48:38;7.27;;;1.90;;
9214;SDS011;4642;51.364;6.788;2023-08-31T12:51:04;6.23;;;2.03;;
9214;SDS011;4642;51.364;6.788;2023-08-31T12:53:30;5.10;;;2.00;;
9214;SDS011;4642;51.364;6.788;2023-08-31T12:55:55;5.13;;;1.87;;
9214;SDS011;4642;51.364;6.788;2023-08-31T12:58:21;7.63;;;1.63;;
9214;SDS011;4642;51.364;6.788;2023-08-31T13:00:49;5.80;;;1.90;;
9214;SDS011;4642;51.364;6.788;2023-08-31T13:03:18;9.00;;;2.60;;
9214;SDS011;4642;51.364;6.788;2023-08-31T13:05:44;5.47;;;1.90;;
9214;SDS011;4642;51.364;6.788;2023-08-31T13:08:10;4.93;;;1.83;;
9214;SDS011;4642;51.364;6.788;2023-08-31T13:10:35;3.30;;;1.60;;
9214;SDS011;4642;51.364;6.788;2023-08-31T13:13:01;4.27;;;1.87;;
9214;SDS011;4642;51.364;6.788;2023-08-31T13:15:26;4.20;;;1.70;;
9214;SDS011;4642;51.364;6.788;2023-08-31T13:17:52;6.57;;;2.10;;
9214;SDS011;4642;51.364;6.788;2023-08-31T13:20:18;4.00;;;1.70;;
9214;SDS011;4642;51.364;6.788;2023-08-31T13:22:43;4.77;;;1.70;;
9214;SDS011;4642;51.364;6.788;2023-08-31T13:25:09;3.17;;;1.67;;
9214;SDS011;4642;51.364;6.788;2023-08-31T13:27:36;3.07;;;1.40;;
9214;SDS011;4642;51.364;6.788;2023-08-31T13:30:02;8.73;;;2.17;;
9214;SDS011;4642;51.364;6.788;2023-08-31T13:32:31;4.17;;;1.80;;
9214;SDS011;4642;51.364;6.788;2023-08-31T13:34:57;7.70;;;1.60;;
9214;SDS011;4642;51.364;6.788;2023-08-31T13:37:22;5.07;;;1.63;;
9214;SDS011;4642;51.364;6.788;2023-08-31T13:39:49;4.07;;;1.43;;
9214;SDS011;4642;51.364;6.788;2023-08-31T13:42:17;6.37;;;1.63;;
9214;SDS011;4642;51.364;6.788;2023-08-31T13:44:42;4.53;;;1.70;;
9214;SDS011;4642;51.364;6.788;2023-08-31T13:47:08;7.50;;;1.60;;
9214;SDS011;4642;51.364;6.788;2023-08-31T13:49:34;3.33;;;1.43;;
9214;SDS011;4642;51.364;6.788;2023-08-31T13:52:00;6.63;;;1.67;;
9214;SDS011;4642;51.364;6.788;2023-08-31T13:54:25;5.37;;;1.57;;
9214;SDS011;4642;51.364;6.788;2023-08-31T13:56:51;5.43;;;1.83;;
9214;SDS011;4642;51.364;6.788;2023-08-31T13:59:17;4.90;;;1.50;;
9214;SDS011;4642;51.364;6.788;2023-08-31T14:01:42;7.30;;;1.37;;
9214;SDS011;4642;51.364;6.788;2023-08-31T14:04:08;5.20;;;1.60;;
9214;SDS011;4642;51.364;6.788;2023-08-31T14:06:33;2.90;;;1.37;;
9214;SDS011;4642;51.364;6.788;2023-08-31T14:08:59;3.00;;;1.37;;
9214;SDS011;4642;51.364;6.788;2023-08-31T14:11:24;4.67;;;1.60;;
9214;SDS011;4642;51.364;6.788;2023-08-31T14:13:50;3.17;;;1.40;;
9214;SDS011;4642;51.364;6.788;2023-08-31T14:16:17;5.03;;;1.60;;
9214;SDS011;4642;51.364;6.788;2023-08-31T14:18:43;3.10;;;1.40;;
9214;SDS011;4642;51.364;6.788;2023-08-31T14:21:14;5.07;;;1.67;;
9214;SDS011;4642;51.364;6.788;2023-08-31T14:23:40;3.03;;;1.33;;
9214;SDS011;4642;51.364;6.788;2023-08-31T14:26:05;5.20;;;1.50;;
9214;SDS011;4642;51.364;6.788;2023-08-31T14:28:31;5.13;;;1.80;;
9214;SDS011;4642;51.364;6.788;2023-08-31T14:30:56;6.57;;;1.90;;
9214;SDS011;4642;51.364;6.788;2023-08-31T14:33:22;6.03;;;2.27;;
9214;SDS011;4642;51.364;6.788;2023-08-31T14:35:50;6.90;;;2.23;;
9214;SDS011;4642;51.364;6.788;2023-08-31T14:38:20;6.67;;;2.10;;
9214;SDS011;4642;51.364;6.788;2023-08-31T14:40:47;4.70;;;2.10;;
9214;SDS011;4642;51.364;6.788;2023-08-31T14:43:12;5.88;;;2.58;;
9214;SDS011;4642;51.364;6.788;2023-08-31T14:45:38;5.70;;;2.47;;
9214;SDS011;4642;51.364;6.788;2023-08-31T14:48:04;4.37;;;2.20;;
9214;SDS011;4642;51.364;6.788;2023-08-31T14:50:29;3.93;;;2.33;;
9214;SDS011;4642;51.364;6.788;2023-08-31T14:52:55;4.53;;;2.10;;
9214;SDS011;4642;51.364;6.788;2023-08-31T14:55:20;5.87;;;2.60;;
9214;SDS011;4642;51.364;6.788;2023-08-31T14:57:46;6.67;;;2.33;;
9214;SDS011;4642;51.364;6.788;2023-08-31T15:00:12;5.37;;;2.03;;
9214;SDS011;4642;51.364;6.788;2023-08-31T15:02:38;5.33;;;2.40;;
9214;SDS011;4642;51.364;6.788;2023-08-31T15:05:04;6.60;;;2.07;;
9214;SDS011;4642;51.364;6.788;2023-08-31T15:07:30;3.77;;;1.90;;
9214;SDS011;4642;51.364;6.788;2023-08-31T15:09:55;3.63;;;2.00;;
9214;SDS011;4642;51.364;6.788;2023-08-31T15:12:21;5.03;;;1.90;;
9214;SDS011;4642;51.364;6.788;2023-08-31T15:14:47;7.37;;;2.03;;
9214;SDS011;4642;51.364;6.788;2023-08-31T15:17:12;5.27;;;1.73;;
9214;SDS011;4642;51.364;6.788;2023-08-31T15:19:38;3.07;;;1.67;;
9214;SDS011;4642;51.364;6.788;2023-08-31T15:22:03;3.47;;;2.00;;
9214;SDS011;4642;51.364;6.788;2023-08-31T15:24:29;5.23;;;1.93;;
9214;SDS011;4642;51.364;6.788;2023-08-31T15:26:55;4.10;;;2.13;;
9214;SDS011;4642;51.364;6.788;2023-08-31T15:29:21;3.50;;;1.70;;
9214;SDS011;4642;51.364;6.788;2023-08-31T15:31:47;3.50;;;1.70;;